Time;durP1;ratioP1;P1;durP2;ratioP2;P2;SDS_P1;SDS_P2;PMS_P1;PMS_P2;Temp;Humidity;BMP_temperature;BMP_pressure;BME280_temperature;BME280_humidity;BME280_pressure;Samples;Min_cycle;Max_cycle;Signal;HPM_P1;HPM_P2
2022/03/18 00:00:47;;;;;;;22.63;5.20;;;2.20;99.90;;;;;;5019339;28;20295;-74
2022/03/18 00:03:15;;;;;;;14.93;4.55;;;2.10;99.90;;;;;;5018727;28;20213;-75
2022/03/18 00:05:43;;;;;;;25.80;5.80;;;2.10;99.90;;;;;;5019567;28;20301;-75
2022/03/18 00:08:11;;;;;;;11.80;3.88;;;2.10;99.90;;;;;;5018268;28;20221;-71
2022/03/18 00:10:39;;;;;;;22.95;5.53;;;2.00;99.90;;;;;;5018806;28;20233;-71
2022/03/18 00:13:08;;;;;;;17.17;5.85;;;2.00;99.90;;;;;;5018143;28;20211;-73
2022/03/18 00:15:36;;;;;;;21.77;5.75;;;2.00;99.90;;;;;;5018805;28;20202;-74
2022/03/18 00:18:04;;;;;;;19.23;5.32;;;2.00;99.90;;;;;;5019705;28;20198;-74
2022/03/18 00:20:32;;;;;;;17.33;5.22;;;1.90;99.90;;;;;;5020294;28;20224;-72
2022/03/18 00:23:00;;;;;;;16.08;4.50;;;1.90;99.90;;;;;;5019931;28;20208;-74
2022/03/18 00:25:29;;;;;;;16.15;5.35;;;1.90;99.90;;;;;;5019349;28;20245;-75
2022/03/18 00:27:57;;;;;;;19.63;6.35;;;1.90;99.90;;;;;;5019498;28;20269;-75
2022/03/18 00:30:26;;;;;;;26.15;6.90;;;1.80;99.90;;;;;;5019322;28;20224;-74
2022/03/18 00:32:54;;;;;;;18.08;5.20;;;1.80;99.90;;;;;;5018392;28;20202;-74
2022/03/18 00:35:36;;;;;;;20.15;5.68;;;1.80;99.90;;;;;;5018169;28;20898;-72
2022/03/18 00:38:04;;;;;;;11.50;5.03;;;1.80;99.90;;;;;;5017757;28;20793;-73
2022/03/18 00:40:32;;;;;;;21.55;5.35;;;1.70;99.90;;;;;;5018090;28;20728;-72
2022/03/18 00:43:03;;;;;;;18.70;5.28;;;1.70;99.90;;;;;;5019356;28;20210;-73
2022/03/18 00:45:34;;;;;;;21.42;5.55;;;1.70;99.90;;;;;;5019041;28;20198;-73
2022/03/18 00:53:32;;;;;;;18.90;5.43;;;1.60;99.90;;;;;;5018184;28;20701;-75
2022/03/18 00:56:00;;;;;;;20.23;5.82;;;1.60;99.90;;;;;;5018964;28;20208;-75
2022/03/18 00:58:28;;;;;;;20.92;5.75;;;1.60;99.90;;;;;;5019014;28;20808;-73
2022/03/18 01:00:57;;;;;;;32.50;5.97;;;1.50;99.90;;;;;;5019085;28;20232;-74
2022/03/18 01:03:25;;;;;;;23.30;6.78;;;1.50;99.90;;;;;;5018320;28;20585;-76
2022/03/18 01:05:53;;;;;;;14.50;5.75;;;1.60;99.90;;;;;;5018733;28;20865;-76
2022/03/18 01:08:21;;;;;;;12.68;5.97;;;1.50;99.90;;;;;;5017333;28;20378;-77
2022/03/18 01:10:50;;;;;;;14.23;5.20;;;1.50;99.90;;;;;;5019646;28;20219;-77
2022/03/18 01:13:18;;;;;;;24.30;7.50;;;1.50;99.90;;;;;;5018707;28;20208;-75
2022/03/18 01:15:46;;;;;;;17.10;6.13;;;1.40;99.90;;;;;;5019409;28;20206;-76
2022/03/18 01:18:16;;;;;;;22.40;6.70;;;1.40;99.90;;;;;;5018861;28;20199;-76
2022/03/18 01:20:44;;;;;;;10.55;5.22;;;1.50;99.90;;;;;;5018906;28;20321;-76
2022/03/18 01:23:12;;;;;;;15.57;5.68;;;1.50;99.90;;;;;;5019420;28;20857;-77
2022/03/18 01:25:40;;;;;;;16.05;5.72;;;1.60;99.90;;;;;;5021046;28;20203;-74
2022/03/18 01:28:08;;;;;;;14.55;5.72;;;1.60;99.90;;;;;;5017448;28;20229;-74
2022/03/18 01:30:36;;;;;;;19.42;5.55;;;1.50;99.90;;;;;;5018024;28;20820;-74
2022/03/18 01:33:04;;;;;;;27.33;8.32;;;1.40;99.90;;;;;;5016925;28;20198;-75
2022/03/18 01:35:33;;;;;;;16.55;6.10;;;1.40;99.90;;;;;;5019166;28;20289;-76
2022/03/18 01:38:01;;;;;;;13.57;6.07;;;1.30;99.90;;;;;;5018525;28;20205;-74
2022/03/18 01:40:28;;;;;;;20.73;6.05;;;1.30;99.90;;;;;;5016984;28;20320;-72
2022/03/18 01:42:57;;;;;;;17.58;6.38;;;1.30;99.90;;;;;;5017931;28;20207;-73
2022/03/18 01:45:25;;;;;;;13.93;5.82;;;1.30;99.90;;;;;;5021150;28;20294;-73
2022/03/18 01:47:53;;;;;;;12.80;5.18;;;1.20;99.90;;;;;;5019323;28;20202;-74
2022/03/18 01:50:22;;;;;;;12.75;6.80;;;1.20;99.90;;;;;;5020546;28;20234;-73
2022/03/18 01:52:51;;;;;;;15.27;6.30;;;1.20;99.90;;;;;;5021007;28;20218;-72
2022/03/18 01:55:21;;;;;;;20.23;6.40;;;1.20;99.90;;;;;;5020655;28;20202;-73
2022/03/18 01:57:49;;;;;;;13.52;6.50;;;1.20;99.90;;;;;;5021416;28;20340;-73
2022/03/18 02:00:18;;;;;;;22.05;7.10;;;1.10;99.90;;;;;;5020429;28;20728;-73
2022/03/18 02:02:46;;;;;;;21.27;6.50;;;1.10;99.90;;;;;;5021203;28;20206;-73
2022/03/18 02:05:14;;;;;;;17.33;6.38;;;1.10;99.90;;;;;;5021223;28;20285;-73
2022/03/18 02:07:45;;;;;;;15.95;5.78;;;1.10;99.90;;;;;;5019993;28;20217;-73
2022/03/18 02:10:14;;;;;;;15.20;6.72;;;1.10;99.90;;;;;;5020616;28;20238;-73
2022/03/18 02:12:42;;;;;;;15.10;6.13;;;1.10;99.90;;;;;;5020696;28;20430;-73
2022/03/18 02:15:11;;;;;;;16.65;6.03;;;1.10;99.90;;;;;;5020686;28;20697;-73
2022/03/18 02:17:38;;;;;;;20.25;7.13;;;1.10;99.90;;;;;;5020585;28;20202;-74
2022/03/18 02:20:08;;;;;;;16.52;5.57;;;1.10;99.90;;;;;;5021981;28;20281;-74
2022/03/18 02:22:38;;;;;;;14.93;6.18;;;1.10;99.90;;;;;;5020380;28;20234;-74
2022/03/18 02:25:09;;;;;;;19.35;5.43;;;1.10;99.90;;;;;;5019972;28;20208;-74
2022/03/18 02:27:38;;;;;;;20.95;5.25;;;1.00;99.90;;;;;;5020445;28;20198;-73
2022/03/18 02:30:08;;;;;;;14.10;5.88;;;1.10;99.90;;;;;;5020659;28;20288;-74
2022/03/18 02:32:36;;;;;;;18.92;5.72;;;1.10;99.90;;;;;;5020806;28;20214;-74
2022/03/18 02:35:05;;;;;;;16.88;6.28;;;1.00;99.90;;;;;;5020258;28;20206;-74
2022/03/18 02:37:32;;;;;;;19.30;5.90;;;1.00;99.90;;;;;;5020703;28;20780;-74
2022/03/18 02:40:02;;;;;;;14.65;5.40;;;1.00;99.90;;;;;;5019817;28;20881;-74
2022/03/18 02:42:30;;;;;;;13.38;5.78;;;1.00;99.90;;;;;;5019785;28;20212;-74
2022/03/18 02:44:58;;;;;;;14.32;6.13;;;1.00;99.90;;;;;;5018248;28;20204;-73
2022/03/18 02:47:26;;;;;;;18.35;6.30;;;1.00;99.90;;;;;;5019850;28;20202;-73
2022/03/18 02:49:54;;;;;;;18.88;6.70;;;1.00;99.90;;;;;;5020524;28;20227;-73
2022/03/18 02:52:22;;;;;;;23.35;6.40;;;1.00;99.90;;;;;;5020142;28;20203;-73
2022/03/18 02:54:50;;;;;;;13.40;6.07;;;1.00;99.90;;;;;;5019250;28;20305;-73
2022/03/18 02:57:19;;;;;;;16.23;6.18;;;1.00;99.90;;;;;;5019453;28;20242;-73
2022/03/18 02:59:47;;;;;;;18.08;6.68;;;0.90;99.90;;;;;;5019735;28;20483;-73
2022/03/18 03:02:15;;;;;;;22.65;6.45;;;0.90;99.90;;;;;;5018933;28;20696;-73
2022/03/18 03:10:12;;;;;;;16.60;6.00;;;0.90;99.90;;;;;;5019471;28;20374;-75
2022/03/18 03:12:41;;;;;;;14.27;6.60;;;0.90;99.90;;;;;;5019730;28;20202;-74
2022/03/18 03:15:10;;;;;;;17.92;6.53;;;0.90;99.90;;;;;;5019293;28;20203;-74
2022/03/18 03:17:37;;;;;;;20.65;6.75;;;0.90;99.90;;;;;;5020774;28;20210;-74
2022/03/18 03:20:08;;;;;;;21.08;6.90;;;0.80;99.90;;;;;;5025045;28;20219;-71
2022/03/18 03:22:36;;;;;;;11.35;5.78;;;0.80;99.90;;;;;;5018791;28;20763;-71
2022/03/18 03:25:04;;;;;;;15.15;6.30;;;0.80;99.90;;;;;;5018798;28;20690;-72
2022/03/18 03:27:32;;;;;;;17.48;7.10;;;0.80;99.90;;;;;;5020366;28;20202;-72
2022/03/18 03:30:03;;;;;;;17.25;6.72;;;0.80;99.90;;;;;;5020265;28;20222;-72
2022/03/18 03:32:31;;;;;;;19.08;6.07;;;0.80;99.90;;;;;;5020461;28;20202;-71
2022/03/18 03:35:00;;;;;;;23.45;7.03;;;0.80;99.90;;;;;;5019908;28;20301;-71
2022/03/18 03:37:29;;;;;;;14.95;6.65;;;0.70;99.90;;;;;;5018937;28;20203;-72
2022/03/18 03:39:56;;;;;;;15.60;6.35;;;0.70;99.90;;;;;;5019419;28;20226;-71
2022/03/18 03:42:24;;;;;;;29.95;6.65;;;0.70;99.90;;;;;;5018936;28;20202;-71
2022/03/18 03:44:52;;;;;;;11.82;6.53;;;0.70;99.90;;;;;;5019122;28;20293;-71
2022/03/18 03:47:21;;;;;;;16.55;7.57;;;0.70;99.90;;;;;;5018761;28;20206;-71
2022/03/18 03:49:49;;;;;;;15.82;6.63;;;0.70;99.90;;;;;;5018386;28;20253;-71
2022/03/18 03:52:17;;;;;;;16.08;7.15;;;0.70;99.90;;;;;;5019074;28;20212;-72
2022/03/18 03:54:45;;;;;;;19.17;6.50;;;0.60;99.90;;;;;;5019123;28;20202;-72
2022/03/18 03:57:12;;;;;;;20.27;7.68;;;0.60;99.90;;;;;;5018977;28;20208;-71
2022/03/18 03:59:40;;;;;;;26.30;6.47;;;0.60;99.90;;;;;;5019256;28;20293;-73
2022/03/18 04:02:11;;;;;;;10.32;6.40;;;0.60;99.90;;;;;;5019034;28;20289;-74
2022/03/18 04:04:40;;;;;;;22.55;7.00;;;0.60;99.90;;;;;;5018563;28;20198;-74
2022/03/18 04:07:09;;;;;;;15.32;6.53;;;0.60;99.90;;;;;;5018355;28;20206;-74
2022/03/18 04:09:36;;;;;;;10.82;5.95;;;0.60;99.90;;;;;;5018405;28;20237;-73
2022/03/18 04:12:05;;;;;;;14.75;6.68;;;0.60;99.90;;;;;;5019007;28;20205;-73
2022/03/18 04:14:33;;;;;;;17.77;7.70;;;0.60;99.90;;;;;;5018362;28;20772;-73
2022/03/18 04:17:02;;;;;;;18.42;6.97;;;0.60;99.90;;;;;;5018127;28;20970;-74
2022/03/18 04:19:30;;;;;;;21.23;7.13;;;0.60;99.90;;;;;;5018643;28;20224;-73
2022/03/18 04:22:00;;;;;;;14.05;6.97;;;0.60;99.90;;;;;;5018439;28;20298;-74
2022/03/18 04:24:28;;;;;;;23.52;7.20;;;0.60;99.90;;;;;;5018546;28;20206;-73
2022/03/18 04:26:55;;;;;;;12.10;7.63;;;0.60;99.90;;;;;;5018221;28;20698;-73
2022/03/18 04:29:23;;;;;;;13.60;7.00;;;0.70;99.90;;;;;;5018712;28;20206;-73
2022/03/18 04:31:52;;;;;;;12.05;6.28;;;0.70;99.90;;;;;;5019192;28;20261;-73
2022/03/18 04:34:20;;;;;;;21.15;7.43;;;0.70;99.90;;;;;;5019260;28;20593;-74
2022/03/18 04:36:48;;;;;;;16.85;6.40;;;0.70;99.90;;;;;;5018543;28;20289;-73
2022/03/18 04:39:17;;;;;;;15.75;7.15;;;0.70;99.90;;;;;;5018472;28;20292;-72
2022/03/18 04:41:45;;;;;;;18.45;8.38;;;0.60;99.90;;;;;;5018959;28;20210;-74
2022/03/18 04:44:12;;;;;;;24.95;8.35;;;0.70;99.90;;;;;;5018845;28;20220;-72
2022/03/18 04:46:40;;;;;;;15.68;8.05;;;0.60;99.90;;;;;;5018075;28;20206;-71
2022/03/18 04:49:08;;;;;;;14.85;8.13;;;0.70;99.90;;;;;;5017884;28;20869;-73
2022/03/18 04:51:36;;;;;;;17.60;8.30;;;0.60;99.90;;;;;;5018610;28;20222;-72
2022/03/18 04:54:04;;;;;;;21.15;8.25;;;0.60;99.90;;;;;;5017922;28;20748;-72
2022/03/18 04:59:19;;;;;;;19.75;7.95;;;0.60;99.90;;;;;;5020304;28;20805;-72
2022/03/18 05:01:47;;;;;;;26.85;8.95;;;0.60;99.90;;;;;;5020362;28;20205;-73
2022/03/18 05:04:15;;;;;;;21.30;7.50;;;0.70;99.90;;;;;;5020689;28;20202;-73
2022/03/18 05:06:43;;;;;;;20.75;8.07;;;0.70;99.90;;;;;;5021009;28;20210;-74
2022/03/18 05:09:11;;;;;;;16.65;7.60;;;0.70;99.90;;;;;;5020205;28;20202;-73
2022/03/18 05:11:40;;;;;;;20.13;8.68;;;0.70;99.90;;;;;;5019288;28;20233;-76
2022/03/18 05:14:08;;;;;;;20.30;7.85;;;0.70;99.90;;;;;;5017318;28;20210;-74
2022/03/18 05:16:36;;;;;;;13.95;7.93;;;0.80;99.90;;;;;;5018265;28;20211;-73
2022/03/18 05:19:03;;;;;;;18.15;8.02;;;0.80;99.90;;;;;;5020944;28;20210;-72
2022/03/18 05:21:31;;;;;;;18.42;7.57;;;0.80;99.90;;;;;;5021724;28;20213;-72
2022/03/18 05:23:59;;;;;;;16.83;8.30;;;0.70;99.90;;;;;;5021893;28;20202;-71
2022/03/18 05:26:27;;;;;;;18.83;8.73;;;0.70;99.90;;;;;;5018852;28;20282;-73
2022/03/18 05:28:57;;;;;;;18.80;9.02;;;0.70;99.90;;;;;;5007899;28;20203;-73
2022/03/18 05:31:26;;;;;;;16.75;8.05;;;0.80;99.90;;;;;;5006826;28;20234;-72
2022/03/18 05:33:54;;;;;;;14.85;6.85;;;0.80;99.90;;;;;;5004366;28;20207;-71
2022/03/18 05:36:22;;;;;;;17.60;7.72;;;0.80;99.90;;;;;;5007517;28;20285;-69
2022/03/18 05:38:50;;;;;;;16.25;8.23;;;0.80;99.90;;;;;;5018938;28;20212;-71
2022/03/18 05:41:18;;;;;;;13.77;7.55;;;0.80;99.90;;;;;;5021309;28;20222;-72
2022/03/18 05:43:45;;;;;;;13.68;8.57;;;0.80;99.90;;;;;;5012507;28;20213;-71
2022/03/18 05:46:15;;;;;;;14.70;8.10;;;0.90;99.90;;;;;;5016012;28;20210;-71
2022/03/18 05:48:43;;;;;;;16.23;9.40;;;0.90;99.90;;;;;;5020610;28;20883;-71
2022/03/18 05:51:11;;;;;;;16.95;9.50;;;0.80;99.90;;;;;;5018431;28;20356;-71
2022/03/18 05:53:51;;;;;;;17.55;7.95;;;0.90;99.90;;;;;;5012432;28;20272;-72
2022/03/18 05:59:06;;;;;;;18.73;7.65;;;1.30;99.90;;;;;;5021904;28;20217;-72
2022/03/18 06:01:38;;;;;;;17.48;8.23;;;1.50;99.90;;;;;;5022533;28;20195;-71
2022/03/18 06:04:06;;;;;;;19.25;8.40;;;1.70;99.90;;;;;;5022791;28;20820;-71
2022/03/18 06:06:34;;;;;;;19.38;8.05;;;1.90;99.90;;;;;;5023617;28;20293;-73
2022/03/18 06:11:51;;;;;;;18.38;8.30;;;2.30;99.90;;;;;;5022476;28;20210;-73
2022/03/18 06:14:20;;;;;;;13.98;8.32;;;2.50;99.90;;;;;;5020714;28;20202;-72
2022/03/18 06:16:50;;;;;;;20.50;8.10;;;2.60;99.90;;;;;;5021302;28;20835;-72
2022/03/18 06:19:20;;;;;;;20.63;8.10;;;2.70;99.90;;;;;;5020444;28;20757;-71
2022/03/18 06:21:48;;;;;;;12.05;7.57;;;2.90;99.90;;;;;;5021126;28;20194;-70
2022/03/18 06:24:17;;;;;;;15.32;7.97;;;3.00;99.90;;;;;;5021276;28;20206;-73
2022/03/18 06:26:45;;;;;;;22.67;8.65;;;3.10;99.90;;;;;;5021590;28;20289;-73
2022/03/18 06:29:13;;;;;;;16.60;8.73;;;3.20;99.90;;;;;;5019431;28;20217;-71
2022/03/18 06:31:41;;;;;;;22.85;9.80;;;3.30;99.90;;;;;;5021307;28;20627;-69
2022/03/18 06:34:11;;;;;;;16.92;9.00;;;3.40;99.90;;;;;;5019463;28;20213;-69
2022/03/18 06:36:39;;;;;;;15.90;8.15;;;3.50;99.90;;;;;;5020260;28;20209;-71
2022/03/18 06:39:08;;;;;;;18.15;8.40;;;3.60;99.90;;;;;;5020346;28;20216;-70
2022/03/18 06:41:36;;;;;;;15.52;8.07;;;3.70;99.90;;;;;;5020468;28;20285;-71
2022/03/18 06:44:08;;;;;;;12.25;8.13;;;3.80;99.90;;;;;;5020464;28;20209;-71
2022/03/18 06:46:36;;;;;;;15.38;8.13;;;3.80;99.90;;;;;;5019986;28;20813;-68
2022/03/18 06:49:05;;;;;;;22.52;9.38;;;3.90;99.90;;;;;;5020184;28;20226;-71
2022/03/18 06:51:36;;;;;;;20.67;10.07;;;3.90;99.90;;;;;;5020116;28;20230;-70
2022/03/18 06:54:04;;;;;;;13.45;8.65;;;4.00;99.90;;;;;;5020235;28;20236;-73
2022/03/18 06:56:33;;;;;;;14.98;8.55;;;4.20;99.90;;;;;;5020649;28;20873;-74
2022/03/18 06:59:01;;;;;;;14.80;9.00;;;4.20;99.90;;;;;;5020214;28;20229;-74
2022/03/18 07:01:29;;;;;;;25.10;9.52;;;4.30;99.90;;;;;;5021333;28;20218;-73
2022/03/18 07:03:57;;;;;;;14.05;7.72;;;4.30;99.90;;;;;;5021412;28;20206;-72
2022/03/18 07:06:25;;;;;;;14.13;8.60;;;4.40;99.90;;;;;;5021099;28;20210;-71
2022/03/18 07:08:54;;;;;;;12.88;8.55;;;4.50;99.90;;;;;;5021011;28;20217;-71
2022/03/18 07:11:22;;;;;;;15.65;8.15;;;4.50;99.90;;;;;;5019745;28;20698;-70
2022/03/18 07:13:50;;;;;;;13.57;7.28;;;4.50;99.90;;;;;;5019566;28;20205;-71
2022/03/18 07:19:04;;;;;;;14.57;7.10;;;4.50;99.90;;;;;;5020063;28;20694;-71
2022/03/18 07:21:33;;;;;;;23.95;9.38;;;4.60;99.90;;;;;;5019321;28;20428;-71
2022/03/18 07:24:03;;;;;;;14.07;8.30;;;4.50;99.90;;;;;;5021602;28;20241;-73
2022/03/18 07:26:31;;;;;;;14.57;8.13;;;4.50;99.90;;;;;;5021145;28;20217;-74
2022/03/18 07:29:03;;;;;;;14.93;7.18;;;4.50;99.90;;;;;;5019214;28;20205;-74
2022/03/18 07:31:31;;;;;;;18.25;8.98;;;4.60;99.90;;;;;;5019442;28;20740;-74
2022/03/18 07:33:59;;;;;;;16.98;10.50;;;4.60;99.90;;;;;;5019572;28;20209;-70
2022/03/18 07:36:27;;;;;;;15.50;9.18;;;4.80;99.90;;;;;;5022594;28;20203;-77
2022/03/18 07:38:55;;;;;;;18.73;9.35;;;4.90;99.90;;;;;;5020727;28;20888;-74
2022/03/18 07:41:25;;;;;;;17.48;8.95;;;5.10;99.90;;;;;;5017304;28;20608;-74
2022/03/18 07:43:53;;;;;;;17.63;8.70;;;5.20;99.90;;;;;;5020200;28;20290;-74
2022/03/18 07:46:21;;;;;;;24.90;9.85;;;5.30;99.90;;;;;;5000033;28;20293;-68
2022/03/18 07:48:49;;;;;;;19.25;8.20;;;5.40;99.90;;;;;;5000307;28;20862;-73
2022/03/18 07:51:17;;;;;;;19.30;9.40;;;5.60;99.90;;;;;;4999769;28;20783;-73
2022/03/18 07:53:44;;;;;;;13.10;9.80;;;5.70;99.90;;;;;;4998505;28;20370;-73
2022/03/18 07:56:12;;;;;;;18.27;8.35;;;5.80;99.90;;;;;;5007345;28;20206;-73
2022/03/18 07:58:42;;;;;;;17.65;8.80;;;5.80;99.90;;;;;;5018663;28;20202;-73
2022/03/18 08:01:11;;;;;;;16.38;9.38;;;5.90;99.90;;;;;;5018979;28;20940;-72
2022/03/18 08:03:39;;;;;;;25.88;10.60;;;5.90;99.90;;;;;;5018228;28;20272;-73
2022/03/18 08:06:07;;;;;;;17.35;9.93;;;5.80;99.90;;;;;;5019164;28;20808;-72
2022/03/18 08:08:35;;;;;;;15.60;9.35;;;5.70;99.90;;;;;;5018705;28;20297;-72
2022/03/18 08:11:03;;;;;;;21.95;9.20;;;5.60;99.90;;;;;;5020437;28;20863;-70
2022/03/18 08:13:31;;;;;;;19.65;9.50;;;5.40;99.90;;;;;;5005444;28;20235;-72
2022/03/18 08:16:00;;;;;;;17.50;9.73;;;5.40;99.90;;;;;;5000101;28;20203;-72
2022/03/18 08:18:28;;;;;;;15.73;8.70;;;5.30;99.90;;;;;;5010216;28;20264;-72
2022/03/18 08:20:56;;;;;;;17.40;9.85;;;5.20;99.90;;;;;;5020233;28;20233;-72
2022/03/18 08:23:26;;;;;;;12.88;9.52;;;5.20;99.90;;;;;;5019618;28;20202;-72
2022/03/18 08:25:53;;;;;;;18.92;10.77;;;5.30;99.90;;;;;;5018933;28;20202;-72
2022/03/18 08:28:21;;;;;;;19.20;10.50;;;5.30;99.90;;;;;;5002278;28;20215;-72
2022/03/18 08:30:49;;;;;;;25.27;9.82;;;5.40;99.90;;;;;;4998739;28;20223;-72
2022/03/18 08:33:19;;;;;;;12.75;9.65;;;5.50;99.90;;;;;;5000363;28;20226;-72
2022/03/18 08:35:48;;;;;;;18.55;11.23;;;5.50;99.90;;;;;;5001292;28;20659;-73
2022/03/18 08:38:16;;;;;;;14.13;9.93;;;5.60;99.90;;;;;;4999962;28;20199;-72
2022/03/18 08:40:44;;;;;;;19.25;9.90;;;5.70;99.90;;;;;;5000218;28;20710;-72
2022/03/18 08:43:12;;;;;;;17.42;8.75;;;5.70;99.90;;;;;;5000914;28;20679;-72
2022/03/18 08:45:40;;;;;;;15.18;9.02;;;5.80;99.90;;;;;;5000413;28;20205;-71
2022/03/18 08:48:08;;;;;;;19.65;9.68;;;5.90;99.90;;;;;;4999393;28;20670;-72
2022/03/18 08:50:37;;;;;;;12.38;7.88;;;6.00;99.90;;;;;;4999818;28;20219;-73
2022/03/18 08:53:09;;;;;;;15.98;8.90;;;6.10;99.90;;;;;;5000929;28;20314;-71
2022/03/18 08:55:39;;;;;;;14.48;8.15;;;6.30;99.90;;;;;;5003280;28;20203;-73
2022/03/18 08:58:08;;;;;;;18.25;9.48;;;6.40;99.90;;;;;;5001605;28;20245;-72
2022/03/18 09:00:36;;;;;;;19.08;7.72;;;6.50;99.90;;;;;;5002594;28;20225;-73
2022/03/18 09:03:05;;;;;;;15.10;9.25;;;6.60;99.90;;;;;;5001850;28;20201;-73
2022/03/18 09:05:34;;;;;;;13.23;8.48;;;6.80;99.90;;;;;;5002835;28;20927;-73
2022/03/18 09:08:03;;;;;;;13.13;8.00;;;6.90;99.90;;;;;;5002100;28;20265;-73
2022/03/18 09:10:31;;;;;;;12.50;7.70;;;7.00;99.90;;;;;;5017261;28;20464;-73
2022/03/18 09:13:00;;;;;;;18.02;7.57;;;7.20;99.90;;;;;;5022063;28;20261;-73
2022/03/18 09:15:29;;;;;;;23.50;8.60;;;7.30;99.90;;;;;;5011123;28;20213;-74
2022/03/18 09:17:58;;;;;;;23.25;9.75;;;7.40;99.90;;;;;;5011390;28;20237;-74
2022/03/18 09:20:26;;;;;;;15.32;7.00;;;7.50;99.90;;;;;;5022003;28;20732;-73
2022/03/18 09:22:54;;;;;;;17.00;8.35;;;7.60;99.90;;;;;;5021762;28;20198;-73
2022/03/18 09:25:23;;;;;;;17.38;9.20;;;7.60;99.90;;;;;;5020994;28;20208;-73
2022/03/18 09:27:52;;;;;;;21.92;8.88;;;7.70;99.90;;;;;;5021553;28;20281;-74
2022/03/18 09:30:40;;;;;;;12.82;8.23;;;7.90;99.90;;;;;;5007908;28;20250;-72
2022/03/18 09:33:08;;;;;;;21.17;8.65;;;7.90;99.90;;;;;;5001923;28;20845;-73
2022/03/18 09:35:40;;;;;;;17.15;8.27;;;8.00;99.90;;;;;;5001593;28;20207;-73
2022/03/18 09:38:10;;;;;;;12.30;7.93;;;8.20;99.90;;;;;;5002075;28;20712;-73
2022/03/18 09:40:41;;;;;;;20.60;8.18;;;8.20;99.90;;;;;;5001792;28;20913;-73
2022/03/18 09:43:33;;;;;;;19.63;9.18;;;8.40;99.90;;;;;;5002158;28;20213;-72
2022/03/18 09:46:02;;;;;;;17.45;10.43;;;8.50;99.90;;;;;;5001158;28;20203;-73
2022/03/18 09:48:51;;;;;;;17.35;8.68;;;8.60;99.90;;;;;;5001419;28;20203;-72
2022/03/18 09:51:19;;;;;;;12.95;8.52;;;8.80;99.90;;;;;;5001601;28;20229;-73
2022/03/18 09:54:08;;;;;;;18.67;8.30;;;8.80;99.90;;;;;;5000978;28;20231;-73
2022/03/18 09:56:40;;;;;;;16.05;8.38;;;9.00;99.90;;;;;;5001040;28;20714;-73
2022/03/18 09:59:09;;;;;;;11.95;7.75;;;9.00;99.90;;;;;;5001616;28;20840;-73
2022/03/18 10:01:37;;;;;;;15.75;7.63;;;9.10;99.90;;;;;;5009482;28;20287;-72
2022/03/18 10:04:07;;;;;;;11.10;6.75;;;9.10;99.90;;;;;;5000198;28;20273;-73
2022/03/18 10:06:35;;;;;;;14.65;8.18;;;9.10;99.90;;;;;;5001629;28;20203;-72
2022/03/18 10:09:04;;;;;;;10.48;6.75;;;9.20;99.90;;;;;;5003075;28;20245;-74
2022/03/18 10:11:35;;;;;;;14.02;7.85;;;9.20;99.90;;;;;;5001027;28;20234;-74
2022/03/18 10:14:07;;;;;;;11.38;7.38;;;9.40;99.90;;;;;;5001018;28;20281;-74
2022/03/18 10:16:36;;;;;;;14.65;8.80;;;9.50;99.90;;;;;;5001627;28;20203;-76
2022/03/18 10:19:07;;;;;;;10.80;7.15;;;9.60;99.90;;;;;;5001202;28;20203;-74
2022/03/18 10:21:50;;;;;;;14.67;8.33;;;9.60;99.90;;;;;;5000418;28;20213;-74
2022/03/18 10:24:22;;;;;;;12.52;7.30;;;9.70;99.90;;;;;;5001525;28;20526;-74
2022/03/18 10:27:15;;;;;;;11.93;9.20;;;9.80;99.90;;;;;;5001284;28;20707;-73
2022/03/18 10:29:46;;;;;;;14.00;7.30;;;9.80;99.90;;;;;;4995509;28;20255;-73
2022/03/18 10:32:15;;;;;;;15.60;7.90;;;9.90;99.90;;;;;;5000360;28;20213;-72
2022/03/18 10:37:41;;;;;;;20.42;8.85;;;10.10;99.90;;;;;;5000074;28;20233;-73
2022/03/18 10:40:11;;;;;;;14.48;7.25;;;10.20;99.90;;;;;;5000863;28;20230;-73
2022/03/18 10:42:39;;;;;;;15.65;7.57;;;10.20;99.90;;;;;;5007447;28;20202;-73
2022/03/18 10:45:09;;;;;;;15.87;8.70;;;10.20;99.90;;;;;;5023611;28;20735;-73
2022/03/18 10:47:38;;;;;;;13.53;8.60;;;10.30;99.90;;;;;;5022154;28;20449;-74
2022/03/18 10:50:18;;;;;;;15.57;7.67;;;10.40;99.90;;;;;;5022403;28;20468;-72
2022/03/18 10:53:03;;;;;;;18.20;8.00;;;10.50;99.90;;;;;;5022525;28;20471;-76
2022/03/18 10:55:34;;;;;;;16.80;7.90;;;10.60;99.90;;;;;;5024877;28;20451;-74
2022/03/18 10:58:05;;;;;;;13.80;8.00;;;10.70;99.90;;;;;;5020622;28;20468;-73
2022/03/18 11:00:36;;;;;;;9.43;7.10;;;10.70;99.90;;;;;;5022017;28;20541;-76
2022/03/18 11:03:06;;;;;;;16.43;8.27;;;10.80;99.90;;;;;;5021686;28;20433;-76
2022/03/18 11:05:35;;;;;;;14.77;7.18;;;10.70;99.90;;;;;;5013977;28;20446;-78
2022/03/18 11:08:05;;;;;;;11.93;7.15;;;10.70;99.90;;;;;;5012860;28;20302;-78
2022/03/18 11:13:22;;;;;;;17.47;8.40;;;10.80;99.90;;;;;;5021021;28;20656;-76
2022/03/18 11:15:53;;;;;;;13.07;6.77;;;10.80;99.90;;;;;;5022135;28;20451;-77
2022/03/18 11:18:22;;;;;;;12.83;8.10;;;10.90;99.90;;;;;;5022322;28;20560;-77
2022/03/18 11:20:52;;;;;;;15.50;8.50;;;11.00;99.90;;;;;;5021823;28;20840;-78
2022/03/18 11:23:22;;;;;;;13.83;7.30;;;11.00;99.90;;;;;;5020309;28;20567;-77
2022/03/18 11:26:00;;;;;;;10.67;6.97;;;11.00;99.90;;;;;;5002835;28;20469;-76
2022/03/18 11:28:28;;;;;;;10.70;7.20;;;11.10;99.90;;;;;;5008858;28;20449;-77
2022/03/18 11:31:05;;;;;;;12.20;7.80;;;11.10;99.90;;;;;;5021903;28;20471;-76
2022/03/18 11:33:34;;;;;;;7.87;6.00;;;11.20;99.90;;;;;;5022031;28;20490;-78
2022/03/18 11:36:10;;;;;;;13.57;7.00;;;11.30;99.90;;;;;;5022200;28;20507;-77
2022/03/18 11:39:02;;;;;;;12.80;6.80;;;11.40;99.90;;;;;;5021453;28;20457;-77
2022/03/18 11:41:56;;;;;;;10.60;6.00;;;11.60;99.90;;;;;;5020743;28;20459;-76
2022/03/18 11:44:45;;;;;;;9.67;5.60;;;11.60;99.90;;;;;;5020768;28;20445;-77
2022/03/18 11:47:50;;;;;;;7.70;4.50;;;11.80;99.90;;;;;;5016395;28;20532;-78
2022/03/18 11:50:49;;;;;;;10.40;4.20;;;11.80;99.90;;;;;;5013802;28;20465;-76
2022/03/18 11:53:45;;;;;;;9.10;4.60;;;11.90;99.90;;;;;;5020595;28;20648;-77
2022/03/18 11:56:13;;;;;;;10.67;4.90;;;12.00;99.90;;;;;;5020361;28;20445;-75
2022/03/18 11:58:44;;;;;;;12.80;4.80;;;12.10;99.90;;;;;;5020789;28;20441;-76
2022/03/18 12:01:41;;;;;;;10.50;5.47;;;12.20;99.90;;;;;;5020203;28;20477;-76
2022/03/18 12:04:30;;;;;;;8.07;5.27;;;12.20;99.90;;;;;;5020190;28;20437;-78
2022/03/18 12:07:18;;;;;;;8.73;5.73;;;12.30;99.90;;;;;;5011362;28;20541;-76
2022/03/18 12:09:50;;;;;;;11.23;4.80;;;12.30;99.90;;;;;;4999918;28;20564;-75
2022/03/18 12:12:19;;;;;;;4.50;2.13;;;12.30;99.90;;;;;;4999831;28;21212;-76
2022/03/18 12:14:48;;;;;;;8.93;3.50;;;12.40;99.90;;;;;;5004383;28;20509;-76
2022/03/18 12:17:16;;;;;;;3.30;3.00;;;12.50;99.90;;;;;;5000745;28;20520;-74
2022/03/18 12:19:49;;;;;;;6.93;3.50;;;12.50;99.90;;;;;;5007199;28;20464;-77
2022/03/18 12:22:20;;;;;;;8.60;3.80;;;12.60;99.90;;;;;;5020173;28;21051;-75
2022/03/18 12:24:50;;;;;;;3.50;3.20;;;12.60;99.90;;;;;;5019663;28;20544;-75
2022/03/18 12:27:20;;;;;;;6.53;3.83;;;12.60;99.90;;;;;;5019177;28;20409;-76
2022/03/18 12:29:51;;;;;;;9.90;3.83;;;12.70;99.90;;;;;;5021181;28;20465;-76
2022/03/18 12:32:19;;;;;;;6.73;4.00;;;12.80;99.90;;;;;;5018938;28;20511;-74
2022/03/18 12:34:48;;;;;;;4.70;4.10;;;13.00;99.90;;;;;;5015986;28;20478;-70
2022/03/18 12:37:20;;;;;;;6.23;4.07;;;13.10;99.90;;;;;;5007655;28;20494;-71
2022/03/18 12:40:00;;;;;;;9.37;4.33;;;13.20;99.90;;;;;;4997914;28;20457;-70
2022/03/18 12:42:28;;;;;;;11.37;3.93;;;13.30;99.90;;;;;;5008044;28;20457;-69
2022/03/18 12:45:00;;;;;;;4.70;3.57;;;13.40;99.90;;;;;;4999943;28;20453;-72
2022/03/18 12:47:32;;;;;;;10.97;4.80;;;13.50;99.90;;;;;;4997940;28;20960;-72
2022/03/18 12:50:00;;;;;;;10.50;4.37;;;13.60;99.90;;;;;;5000699;28;21026;-71
2022/03/18 12:52:29;;;;;;;5.97;4.00;;;13.80;99.90;;;;;;5015917;28;20575;-71
2022/03/18 12:55:06;;;;;;;6.50;4.20;;;13.90;99.90;;;;;;5011502;28;20489;-72
2022/03/18 12:57:35;;;;;;;11.90;5.73;;;14.00;99.90;;;;;;5013941;28;20966;-70
2022/03/18 13:00:04;;;;;;;9.17;4.70;;;14.20;99.90;;;;;;5018213;28;20545;-70
2022/03/18 13:02:52;;;;;;;11.47;4.40;;;14.30;99.90;;;;;;4999582;28;20658;-73
2022/03/18 13:05:20;;;;;;;8.33;4.60;;;14.30;99.90;;;;;;5003285;28;20449;-70
2022/03/18 13:07:50;;;;;;;8.53;4.90;;;14.40;99.90;;;;;;5015495;28;20510;-68
2022/03/18 13:10:21;;;;;;;11.70;5.73;;;14.30;99.90;;;;;;5017645;28;20870;-72
2022/03/18 13:12:49;;;;;;;13.50;5.67;;;14.30;99.90;;;;;;5013568;28;20446;-72
2022/03/18 13:15:19;;;;;;;11.70;5.40;;;14.30;99.90;;;;;;5016976;28;20538;-72
2022/03/18 13:17:48;;;;;;;6.60;4.47;;;14.30;99.90;;;;;;5008152;28;20955;-72
2022/03/18 13:20:24;;;;;;;9.13;5.03;;;14.40;99.90;;;;;;5007150;28;20464;-71
2022/03/18 13:22:54;;;;;;;9.50;4.07;;;14.50;99.90;;;;;;5004660;28;20455;-71
2022/03/18 13:25:22;;;;;;;10.90;5.30;;;14.50;99.90;;;;;;5011446;28;21120;-72
2022/03/18 13:27:51;;;;;;;8.80;4.83;;;14.60;99.90;;;;;;5012545;28;20539;-72